Oak Harbor, Washington
Current Conditions -  °F | °C
As of 4:56 PM on Wednesday 22 Oct 2014 (Local Time) from KNUW Reporting Station
Moderate Rain Moderate Rain  
Wind Chill: 58°   Ceiling: 1000
Heat Index: 58°   Visibility: 4mi
Dew Point: 54°   Wind: 16mph
Humidity: 87%   Direction: 140°SE
Pressure: 29.58"   Gusts: NA
Location:  48.29°N, 122.64°W
Report Text: KNUW 222356Z 14014KT 4SM RA BR BKN010 BKN020 OVC065 14/12 A2958 RMK AO2 PK WND 15026/2324 SLP020 P0014 60015 T01440122 10156 20139 56026
Loading
Personal Weather Stations






























Interactive Weather Map
Tropical Storm Tracking
New forecast layout! Learn more

10-Day Weather Forecast

Advertisements
Track Severe Weather on mobile